Time;durP1;ratioP1;P1;durP2;ratioP2;P2;SDS_P1;SDS_P2;PMS_P1;PMS_P2;Temp;Humidity;BMP_temperature;BMP_pressure;BME280_temperature;BME280_humidity;BME280_pressure;Samples;Min_cycle;Max_cycle;Signal;HPM_P1;HPM_P2
2023/01/31 00:00:13;;;;;;;7.22;2.28;;;13.90;96.20;;;;;;6216406;23;20016;-76
2023/01/31 00:02:39;;;;;;;11.10;3.20;;;14.00;96.00;;;;;;6216180;23;20024;-75
2023/01/31 00:05:05;;;;;;;8.65;2.50;;;14.00;94.90;;;;;;6216879;23;20025;-76
2023/01/31 00:07:31;;;;;;;10.95;2.90;;;13.90;96.00;;;;;;6190294;23;20074;-76
2023/01/31 00:09:56;;;;;;;11.18;2.17;;;13.80;95.90;;;;;;6216138;23;20091;-76
2023/01/31 00:12:22;;;;;;;8.75;2.25;;;13.70;95.10;;;;;;6216274;23;20020;-75
2023/01/31 00:14:48;;;;;;;12.07;2.20;;;14.00;95.80;;;;;;6216214;23;20012;-75
2023/01/31 00:17:14;;;;;;;9.85;2.45;;;13.70;95.00;;;;;;6216692;23;20100;-76
2023/01/31 00:19:39;;;;;;;10.05;2.30;;;14.00;94.70;;;;;;6216353;23;20025;-76
2023/01/31 00:22:06;;;;;;;9.77;2.78;;;;;;;;;;6216897;23;20031;-75
2023/01/31 00:24:31;;;;;;;8.77;2.65;;;13.80;95.70;;;;;;6216371;23;20070;-76
2023/01/31 00:26:57;;;;;;;8.65;2.20;;;13.80;95.70;;;;;;6216719;23;20017;-76
2023/01/31 00:29:23;;;;;;;10.80;2.80;;;;;;;;;;6189936;23;20062;-76
2023/01/31 00:31:49;;;;;;;13.93;2.95;;;;;;;;;;6216291;23;20390;-76
2023/01/31 00:34:15;;;;;;;8.00;2.35;;;13.90;95.70;;;;;;6216385;23;20025;-76
2023/01/31 00:36:41;;;;;;;13.10;2.38;;;14.00;95.80;;;;;;6216783;23;20016;-76
2023/01/31 00:39:07;;;;;;;8.23;2.10;;;13.90;95.60;;;;;;6216444;23;20016;-75
2023/01/31 00:41:33;;;;;;;6.80;2.03;;;13.90;95.60;;;;;;6216485;23;20020;-76
2023/01/31 00:43:59;;;;;;;6.90;2.00;;;13.80;95.50;;;;;;6215883;23;20048;-76
2023/01/31 00:46:26;;;;;;;10.52;2.22;;;;;;;;;;6216237;23;20086;-72
2023/01/31 00:48:51;;;;;;;8.95;2.13;;;13.60;94.30;;;;;;6216543;23;20013;-76
2023/01/31 00:51:18;;;;;;;8.77;2.42;;;;;;;;;;6190157;23;20323;-74
2023/01/31 00:53:43;;;;;;;10.15;2.40;;;13.80;95.50;;;;;;6215293;23;20021;-61
2023/01/31 00:56:13;;;;;;;9.95;2.42;;;13.70;94.20;;;;;;6216644;23;20378;-61
2023/01/31 00:58:38;;;;;;;9.48;2.40;;;13.90;95.40;;;;;;6216552;23;20016;-75
2023/01/31 01:01:08;;;;;;;8.50;2.47;;;13.70;95.30;;;;;;6216351;23;20023;-74
2023/01/31 01:03:34;;;;;;;12.38;3.10;;;13.90;95.30;;;;;;6216021;23;20083;-62
2023/01/31 01:06:00;;;;;;;10.55;2.10;;;13.40;94.00;;;;;;6216398;23;20066;-75
2023/01/31 01:08:26;;;;;;;9.35;2.10;;;13.90;95.30;;;;;;6216084;23;20020;-75
2023/01/31 01:10:52;;;;;;;7.97;1.95;;;13.80;95.30;;;;;;6189468;23;20020;-61
2023/01/31 01:13:18;;;;;;;8.32;2.70;;;;;;;;;;6215924;23;20065;-61
2023/01/31 01:15:44;;;;;;;10.32;2.50;;;;;;;;;;6215990;23;20020;-61
2023/01/31 01:18:11;;;;;;;10.48;2.80;;;;;;;;;;6216273;23;20016;-61
2023/01/31 01:20:36;;;;;;;9.00;2.13;;;13.70;95.20;;;;;;6216064;23;20067;-61
2023/01/31 01:23:02;;;;;;;9.27;2.47;;;13.60;95.00;;;;;;6215733;23;20024;-62
2023/01/31 01:25:28;;;;;;;10.30;2.63;;;13.80;95.10;;;;;;6216368;23;20024;-62
2023/01/31 01:27:54;;;;;;;8.80;2.28;;;;;;;;;;6215888;23;20021;-62
2023/01/31 01:30:20;;;;;;;8.02;2.28;;;13.80;95.00;;;;;;6216267;23;20059;-61
2023/01/31 01:32:46;;;;;;;9.88;2.38;;;13.80;93.80;;;;;;6215790;23;20056;-61
2023/01/31 01:35:11;;;;;;;7.43;2.45;;;13.90;95.00;;;;;;6215772;23;20009;-61
2023/01/31 01:37:37;;;;;;;9.30;2.15;;;13.60;95.10;;;;;;6216256;23;20335;-61
2023/01/31 01:40:03;;;;;;;11.10;2.42;;;13.70;94.90;;;;;;6216125;23;20044;-62
2023/01/31 01:42:33;;;;;;;10.45;2.72;;;13.90;94.90;;;;;;6216025;23;20023;-63
2023/01/31 01:44:59;;;;;;;7.22;2.05;;;13.80;93.70;;;;;;6215730;23;20016;-61
2023/01/31 01:47:28;;;;;;;9.73;2.00;;;13.40;94.80;;;;;;6215878;23;20020;-62
2023/01/31 01:50:16;;;;;;;8.50;2.10;;;13.50;93.60;;;;;;6216245;23;20021;-61
2023/01/31 01:52:49;;;;;;;7.20;1.70;;;13.50;94.20;;;;;;6189266;23;20328;-61
2023/01/31 01:55:19;;;;;;;;;;;13.50;93.60;;;;;;6216257;23;20032;-61
2023/01/31 01:57:46;;;;;;;9.50;2.55;;;13.50;94.90;;;;;;6215740;23;19962;-73
2023/01/31 02:00:14;;;;;;;7.65;2.28;;;13.60;94.80;;;;;;6215856;23;20067;-61
2023/01/31 02:02:42;;;;;;;9.40;2.03;;;13.60;94.70;;;;;;6189577;23;20095;-61
2023/01/31 02:05:08;;;;;;;9.82;2.22;;;13.70;93.50;;;;;;6215628;23;20016;-61
2023/01/31 02:07:34;;;;;;;8.25;2.25;;;13.60;94.70;;;;;;6164465;23;20497;-62
2023/01/31 02:10:03;;;;;;;11.75;2.40;;;13.60;93.50;;;;;;6188499;23;20017;-62
2023/01/31 02:12:29;;;;;;;8.52;2.05;;;;;;;;;;6189433;23;20078;-67
2023/01/31 02:14:55;;;;;;;11.80;2.53;;;13.70;94.70;;;;;;6215478;23;20389;-61
2023/01/31 02:17:20;;;;;;;8.38;1.88;;;13.60;94.60;;;;;;6215922;23;20047;-64
2023/01/31 02:19:49;;;;;;;9.00;2.00;;;13.50;94.60;;;;;;6216037;23;20346;-76
2023/01/31 02:22:56;;;;;;;9.07;2.30;;;13.70;93.40;;;;;;6218060;23;20401;-61
2023/01/31 02:25:21;;;;;;;9.93;2.10;;;13.60;94.60;;;;;;6067217;23;20101;-62
2023/01/31 02:28:21;;;;;;;10.25;2.05;;;13.50;92.70;;;;;;6067849;23;20046;-61
2023/01/31 02:30:53;;;;;;;9.30;2.03;;;;;;;;;;6044058;23;20027;-62
2023/01/31 02:34:06;;;;;;;10.53;2.37;;;13.50;93.30;;;;;;6067832;23;20019;-61
2023/01/31 02:36:43;;;;;;;8.63;2.40;;;13.80;94.60;;;;;;6043587;23;20255;-61
2023/01/31 02:39:21;;;;;;;5.30;1.88;;;13.30;92.50;;;;;;6067495;23;20033;-61
2023/01/31 02:41:56;;;;;;;9.45;2.20;;;13.70;94.60;;;;;;6067542;23;20023;-61
2023/01/31 02:47:32;;;;;;;10.75;2.33;;;13.50;94.40;;;;;;6067474;23;20030;-76
2023/01/31 02:50:05;;;;;;;6.60;2.17;;;;;;;;;;6067873;23;20023;-75
2023/01/31 02:52:36;;;;;;;8.73;2.60;;;13.50;94.40;;;;;;6067556;23;20437;-61
2023/01/31 02:58:20;;;;;;;7.63;1.80;;;13.50;94.40;;;;;;6217320;23;20027;-61
2023/01/31 03:00:46;;;;;;;8.77;2.30;;;13.60;93.20;;;;;;6141392;23;20020;-61
2023/01/31 03:03:20;;;;;;;8.52;2.05;;;13.60;93.00;;;;;;6190878;23;20019;-61
2023/01/31 03:06:24;;;;;;;10.02;2.00;;;13.60;94.40;;;;;;6190204;23;20104;-61
2023/01/31 03:08:56;;;;;;;8.77;1.80;;;13.40;94.30;;;;;;6190741;23;20016;-62
2023/01/31 03:11:24;;;;;;;9.27;2.03;;;13.50;94.30;;;;;;6217570;23;20019;-62
2023/01/31 03:13:57;;;;;;;7.82;2.08;;;13.40;94.30;;;;;;6166142;23;20021;-61
2023/01/31 03:19:31;;;;;;;10.30;2.03;;;13.50;94.30;;;;;;6195016;23;20017;-61
2023/01/31 03:22:00;;;;;;;9.18;2.33;;;13.60;94.30;;;;;;6166065;23;20090;-61
2023/01/31 03:24:29;;;;;;;8.57;2.28;;;13.30;94.20;;;;;;6217517;23;20342;-74
2023/01/31 03:26:55;;;;;;;9.07;1.88;;;13.60;94.20;;;;;;6190556;23;20187;-61
2023/01/31 03:29:21;;;;;;;10.32;2.17;;;;;;;;;;6190886;23;20024;-61
2023/01/31 03:32:10;;;;;;;9.30;2.08;;;13.50;92.90;;;;;;6216539;23;20335;-75
2023/01/31 03:34:36;;;;;;;7.63;1.90;;;13.70;93.00;;;;;;6190538;23;20013;-75
2023/01/31 03:37:04;;;;;;;7.32;2.20;;;13.40;94.10;;;;;;6216826;23;20096;-70
2023/01/31 03:39:39;;;;;;;10.27;2.67;;;13.60;94.20;;;;;;6190881;23;20019;-61
2023/01/31 03:42:06;;;;;;;7.80;2.20;;;13.60;92.80;;;;;;6216895;23;20020;-61
2023/01/31 03:44:39;;;;;;;9.82;2.20;;;13.40;94.10;;;;;;6216817;23;20091;-61
2023/01/31 03:47:30;;;;;;;11.07;2.58;;;13.40;92.80;;;;;;6190052;23;20023;-61
2023/01/31 03:49:57;;;;;;;6.70;2.05;;;13.50;94.20;;;;;;6216192;23;20031;-62
2023/01/31 03:52:30;;;;;;;8.95;2.08;;;13.40;94.00;;;;;;6166273;23;20020;-63
2023/01/31 03:55:08;;;;;;;6.30;1.80;;;13.40;92.80;;;;;;6166361;23;20048;-62
2023/01/31 03:57:35;;;;;;;6.70;2.22;;;13.40;94.00;;;;;;6190294;23;20017;-61
2023/01/31 04:00:03;;;;;;;8.32;1.95;;;13.20;92.50;;;;;;6165891;23;20051;-73
2023/01/31 04:02:32;;;;;;;6.40;1.58;;;13.30;93.90;;;;;;6165890;23;20012;-70
2023/01/31 04:05:19;;;;;;;11.65;1.77;;;13.50;93.90;;;;;;6166225;23;20019;-66
2023/01/31 04:07:46;;;;;;;8.15;2.22;;;13.50;93.90;;;;;;6215109;23;20459;-71
2023/01/31 04:10:16;;;;;;;7.45;2.38;;;13.60;91.90;;;;;;6166439;23;20036;-64
2023/01/31 04:12:42;;;;;;;10.52;2.53;;;13.60;93.90;;;;;;6190575;23;20056;-61
2023/01/31 04:15:08;;;;;;;11.23;1.92;;;13.50;93.90;;;;;;6217094;23;20025;-60
2023/01/31 04:17:34;;;;;;;8.32;2.22;;;13.50;93.80;;;;;;6216153;23;20435;-61
2023/01/31 04:20:00;;;;;;;7.22;1.70;;;13.50;94.10;;;;;;6216715;23;20021;-60
2023/01/31 04:22:25;;;;;;;7.57;2.17;;;13.40;93.80;;;;;;6216980;23;20098;-60
2023/01/31 04:24:51;;;;;;;8.32;2.45;;;13.60;93.80;;;;;;6216021;23;20342;-60
2023/01/31 04:27:17;;;;;;;9.18;2.00;;;13.40;93.80;;;;;;6216980;23;20012;-60
2023/01/31 04:29:43;;;;;;;9.90;2.33;;;;;;;;;;6216285;23;20017;-61
2023/01/31 04:32:09;;;;;;;7.85;1.85;;;;;;;;;;6216730;23;20016;-60
2023/01/31 04:34:35;;;;;;;10.15;1.88;;;13.60;92.60;;;;;;6216463;23;20022;-60
2023/01/31 04:37:01;;;;;;;8.88;2.30;;;13.50;93.80;;;;;;6216710;23;20047;-60
2023/01/31 04:39:26;;;;;;;8.10;1.88;;;13.30;93.70;;;;;;6216356;23;20012;-75
2023/01/31 04:41:52;;;;;;;10.10;2.20;;;13.30;93.70;;;;;;6216627;23;20335;-75
2023/01/31 04:44:18;;;;;;;9.13;2.03;;;;;;;;;;6189576;23;20017;-76
2023/01/31 04:46:45;;;;;;;9.20;2.35;;;13.30;92.50;;;;;;6216596;23;20017;-69
2023/01/31 04:49:12;;;;;;;9.70;2.50;;;13.40;93.70;;;;;;6216168;23;20019;-67
2023/01/31 04:51:37;;;;;;;6.38;1.90;;;13.50;92.50;;;;;;6216192;23;20064;-61
2023/01/31 04:54:03;;;;;;;12.07;2.70;;;13.40;93.70;;;;;;6216239;23;20017;-61
2023/01/31 04:56:30;;;;;;;10.20;2.08;;;13.50;93.70;;;;;;6216606;23;20013;-74
2023/01/31 04:58:56;;;;;;;8.48;1.85;;;13.30;92.40;;;;;;6216126;23;20339;-63
2023/01/31 05:01:22;;;;;;;6.85;1.73;;;13.50;93.70;;;;;;6216184;23;20027;-61
2023/01/31 05:03:48;;;;;;;12.35;2.17;;;13.40;93.70;;;;;;6216007;23;20517;-60
2023/01/31 05:06:14;;;;;;;11.13;2.25;;;13.40;93.70;;;;;;6189183;23;20025;-60
2023/01/31 05:08:40;;;;;;;12.90;2.38;;;13.20;93.60;;;;;;6216011;23;20346;-60
2023/01/31 05:11:06;;;;;;;7.68;2.10;;;;;;;;;;6216426;23;20016;-60
2023/01/31 05:13:36;;;;;;;8.93;2.10;;;;;;;;;;6216220;23;20017;-60
2023/01/31 05:16:06;;;;;;;10.98;2.10;;;13.30;92.40;;;;;;6215863;23;20023;-60
2023/01/31 05:18:34;;;;;;;9.43;2.30;;;;;;;;;;6216293;23;20071;-60
2023/01/31 05:21:01;;;;;;;7.72;1.83;;;13.30;92.40;;;;;;6215547;23;20021;-61
2023/01/31 05:23:27;;;;;;;9.25;2.05;;;13.50;93.80;;;;;;6216433;23;20098;-60
2023/01/31 05:25:52;;;;;;;11.23;2.08;;;13.40;93.60;;;;;;6216694;23;20423;-61
2023/01/31 05:28:18;;;;;;;8.70;2.40;;;13.50;93.50;;;;;;6215481;23;20012;-62
2023/01/31 05:30:44;;;;;;;9.05;1.88;;;13.40;93.60;;;;;;6215976;23;20032;-61
2023/01/31 05:33:10;;;;;;;9.93;2.70;;;;;;;;;;6216017;23;20082;-60
2023/01/31 05:35:38;;;;;;;8.30;2.00;;;;;;;;;;6215570;23;20091;-60
2023/01/31 05:38:04;;;;;;;8.30;2.35;;;;;;;;;;6215828;23;20016;-61
2023/01/31 05:40:30;;;;;;;11.25;2.67;;;13.10;92.30;;;;;;6215933;23;20012;-60
2023/01/31 05:42:56;;;;;;;10.75;2.58;;;13.60;93.70;;;;;;6215657;23;20104;-60
2023/01/31 05:45:22;;;;;;;8.55;2.55;;;13.20;93.60;;;;;;6215833;23;20017;-61
2023/01/31 05:47:48;;;;;;;11.48;2.65;;;13.40;92.40;;;;;;6215819;23;20027;-61
2023/01/31 05:50:14;;;;;;;7.15;2.00;;;13.40;93.60;;;;;;6188647;23;20372;-61
2023/01/31 05:52:40;;;;;;;7.68;2.50;;;13.30;92.40;;;;;;6216215;23;20074;-60
2023/01/31 05:55:06;;;;;;;10.20;2.55;;;13.20;93.60;;;;;;6188887;23;20446;-60
2023/01/31 05:57:32;;;;;;;10.27;2.50;;;;;;;;;;6216446;23;20088;-60
2023/01/31 05:59:59;;;;;;;10.98;2.72;;;13.20;92.30;;;;;;6188802;23;20027;-60
2023/01/31 06:02:24;;;;;;;9.82;2.53;;;13.30;93.60;;;;;;6216060;23;20028;-61
2023/01/31 06:04:50;;;;;;;10.63;3.10;;;;;;;;;;6189222;23;20023;-61
2023/01/31 06:07:16;;;;;;;9.30;2.45;;;;;;;;;;6215653;23;20075;-61
2023/01/31 06:09:42;;;;;;;10.32;3.05;;;13.20;93.60;;;;;;6215655;23;20020;-61
2023/01/31 06:12:14;;;;;;;13.35;3.00;;;13.20;91.60;;;;;;6215867;23;20096;-60
2023/01/31 06:14:40;;;;;;;11.75;2.60;;;13.60;93.70;;;;;;6216009;23;20012;-63
2023/01/31 06:17:05;;;;;;;11.27;2.90;;;13.60;93.70;;;;;;6215780;23;20438;-61
2023/01/31 06:19:31;;;;;;;10.43;2.50;;;13.40;93.60;;;;;;6215335;23;20013;-61
2023/01/31 06:21:57;;;;;;;13.55;3.03;;;13.40;93.70;;;;;;6215021;23;20020;-61
2023/01/31 06:24:23;;;;;;;8.40;2.72;;;13.50;93.70;;;;;;6215961;23;20027;-60
2023/01/31 06:26:48;;;;;;;11.50;2.80;;;13.40;93.60;;;;;;6189119;23;20094;-61
2023/01/31 06:29:15;;;;;;;8.93;2.25;;;;;;;;;;6188606;23;20021;-60
2023/01/31 06:31:46;;;;;;;10.45;2.65;;;13.30;92.20;;;;;;6188908;23;20091;-60
2023/01/31 06:34:12;;;;;;;11.25;2.92;;;13.30;92.60;;;;;;6215614;23;20016;-62
2023/01/31 06:36:37;;;;;;;11.98;2.90;;;13.30;93.70;;;;;;6215584;23;20075;-61
2023/01/31 06:39:03;;;;;;;10.98;3.08;;;13.30;93.60;;;;;;6215470;23;20059;-60
2023/01/31 06:41:29;;;;;;;12.18;2.95;;;;;;;;;;6215844;23;20021;-62
2023/01/31 06:43:56;;;;;;;12.63;3.20;;;;;;;;;;6215264;23;20466;-60
2023/01/31 06:46:21;;;;;;;12.63;3.05;;;13.50;93.70;;;;;;6215237;23;20052;-70
2023/01/31 06:48:47;;;;;;;16.23;3.13;;;13.60;92.40;;;;;;6189672;23;20075;-59
2023/01/31 06:51:16;;;;;;;10.18;2.60;;;13.20;93.50;;;;;;6214434;23;20439;-60
2023/01/31 06:53:42;;;;;;;14.68;2.83;;;13.10;93.50;;;;;;6215537;23;20455;-59
2023/01/31 06:56:08;;;;;;;10.60;2.92;;;;;;;;;;6215593;23;20019;-60
2023/01/31 06:58:34;;;;;;;15.80;2.80;;;13.50;93.50;;;;;;6188817;23;20021;-60
2023/01/31 07:01:07;;;;;;;12.13;3.50;;;13.40;91.50;;;;;;6188976;23;20032;-67
2023/01/31 07:03:33;;;;;;;13.25;3.08;;;13.30;93.50;;;;;;6215731;23;20040;-60
2023/01/31 07:05:58;;;;;;;15.07;3.38;;;13.40;92.30;;;;;;6188576;23;20017;-60
2023/01/31 07:08:24;;;;;;;10.20;2.78;;;13.30;93.40;;;;;;6217208;23;20469;-60
2023/01/31 07:10:50;;;;;;;12.98;3.78;;;13.40;93.40;;;;;;6190233;23;20091;-62
2023/01/31 07:13:18;;;;;;;11.25;2.88;;;;;;;;;;6216915;23;20028;-60
2023/01/31 07:15:44;;;;;;;14.13;3.22;;;;;;;;;;6216576;23;20017;-60
2023/01/31 07:18:11;;;;;;;12.82;3.28;;;13.50;93.50;;;;;;6217264;23;20382;-60
2023/01/31 07:20:41;;;;;;;16.65;3.30;;;13.50;93.50;;;;;;6216829;23;20030;-63
2023/01/31 07:23:07;;;;;;;11.55;3.10;;;13.30;93.40;;;;;;6166257;23;20025;-62
2023/01/31 07:25:34;;;;;;;14.27;3.40;;;;;;;;;;6216733;23;20020;-60
2023/01/31 07:28:03;;;;;;;9.90;3.05;;;13.50;92.30;;;;;;6216755;23;20466;-61
2023/01/31 07:30:29;;;;;;;9.95;3.13;;;;;;;;;;6216499;23;20009;-65
2023/01/31 07:32:55;;;;;;;11.05;3.08;;;13.10;93.40;;;;;;6217273;23;20024;-61
2023/01/31 07:35:21;;;;;;;11.25;3.00;;;;;;;;;;6190288;23;20055;-61
2023/01/31 07:37:47;;;;;;;15.05;3.47;;;;;;;;;;6216401;23;20020;-62
2023/01/31 07:40:14;;;;;;;13.30;3.22;;;13.50;93.50;;;;;;6217001;23;20463;-60
2023/01/31 07:42:40;;;;;;;15.77;3.45;;;13.50;93.40;;;;;;6217168;23;20052;-62
2023/01/31 07:45:06;;;;;;;11.43;2.95;;;13.40;93.40;;;;;;6216672;23;20082;-62
2023/01/31 07:47:32;;;;;;;9.70;2.70;;;13.30;93.30;;;;;;6217152;23;20019;-61
2023/01/31 07:49:58;;;;;;;10.60;2.83;;;13.40;93.40;;;;;;6216849;23;20506;-62
2023/01/31 07:52:24;;;;;;;11.77;2.90;;;13.80;93.50;;;;;;6216767;23;20056;-64
2023/01/31 07:54:49;;;;;;;12.68;3.22;;;13.50;92.30;;;;;;6216896;23;20017;-63
2023/01/31 07:57:18;;;;;;;10.02;3.42;;;13.50;93.40;;;;;;6216720;23;20023;-63
2023/01/31 07:59:44;;;;;;;12.48;3.30;;;;;;;;;;6191540;23;20079;-63
2023/01/31 08:04:59;;;;;;;10.25;3.28;;;;;;;;;;6216527;23;20027;-61
2023/01/31 08:07:26;;;;;;;11.95;3.17;;;13.50;93.40;;;;;;6216619;23;20447;-62
2023/01/31 08:09:51;;;;;;;10.50;2.60;;;13.40;92.20;;;;;;6216358;23;20054;-63
2023/01/31 08:12:17;;;;;;;12.80;2.60;;;13.60;93.40;;;;;;6216891;23;20016;-60
2023/01/31 08:14:43;;;;;;;11.95;3.10;;;13.50;92.20;;;;;;6216550;23;20154;-63
2023/01/31 08:17:09;;;;;;;10.88;2.97;;;13.80;93.50;;;;;;6216011;23;20052;-66
2023/01/31 08:19:35;;;;;;;14.95;3.38;;;13.20;93.30;;;;;;6216384;23;20017;-63
2023/01/31 08:22:03;;;;;;;11.05;2.75;;;13.50;92.00;;;;;;6216204;23;20099;-62
2023/01/31 08:24:29;;;;;;;13.50;3.15;;;13.50;93.30;;;;;;6215871;23;20016;-60
2023/01/31 08:26:55;;;;;;;10.48;2.80;;;13.30;92.10;;;;;;6216000;23;20382;-63
2023/01/31 08:29:21;;;;;;;11.95;2.92;;;13.50;93.40;;;;;;6216545;23;20063;-62
2023/01/31 08:31:47;;;;;;;11.55;3.20;;;13.50;93.30;;;;;;6216134;23;20154;-66
2023/01/31 08:34:13;;;;;;;10.10;3.05;;;;;;;;;;6189936;23;20447;-65
2023/01/31 08:36:39;;;;;;;12.50;3.00;;;13.30;93.30;;;;;;6216067;23;20013;-64
2023/01/31 08:39:05;;;;;;;8.20;2.40;;;13.40;93.30;;;;;;6215398;23;20522;-65
2023/01/31 08:41:32;;;;;;;8.93;2.38;;;13.60;92.20;;;;;;6216032;23;20012;-62
2023/01/31 08:43:58;;;;;;;11.45;2.50;;;13.40;93.30;;;;;;6216075;23;20537;-64
2023/01/31 08:46:26;;;;;;;8.82;2.65;;;13.50;93.30;;;;;;6216645;23;20074;-61
2023/01/31 08:48:52;;;;;;;11.35;2.97;;;13.60;93.30;;;;;;6216124;23;20320;-61
2023/01/31 08:51:18;;;;;;;8.88;2.40;;;;;;;;;;6216409;23;20028;-67
2023/01/31 08:53:44;;;;;;;8.60;2.55;;;;;;;;;;6215565;23;20023;-64
2023/01/31 08:56:10;;;;;;;8.40;2.60;;;13.60;93.30;;;;;;6215977;23;20016;-65
2023/01/31 08:58:37;;;;;;;7.93;2.55;;;13.50;93.40;;;;;;6216592;23;20396;-62
2023/01/31 09:01:04;;;;;;;7.70;2.10;;;13.60;93.40;;;;;;6216130;23;20070;-61
2023/01/31 09:03:30;;;;;;;10.80;2.78;;;13.30;93.20;;;;;;6216085;23;20016;-61
2023/01/31 09:06:06;;;;;;;8.15;2.03;;;13.70;91.50;;;;;;6215769;23;20017;-62
2023/01/31 09:08:31;;;;;;;10.45;2.45;;;13.50;93.40;;;;;;6216499;23;20016;-62
2023/01/31 09:10:59;;;;;;;10.35;3.08;;;13.50;93.40;;;;;;6216125;23;20159;-62
2023/01/31 09:13:25;;;;;;;9.98;2.47;;;13.50;93.40;;;;;;6215836;23;20016;-62
2023/01/31 09:16:09;;;;;;;9.25;2.50;;;13.50;92.20;;;;;;6215445;23;20016;-61
2023/01/31 09:18:36;;;;;;;11.60;2.67;;;13.30;93.40;;;;;;6189193;23;20024;-63
2023/01/31 09:21:04;;;;;;;9.90;2.40;;;13.50;93.40;;;;;;6215854;23;20343;-63
2023/01/31 09:23:30;;;;;;;7.40;2.15;;;13.50;93.40;;;;;;6216389;23;20403;-62
2023/01/31 09:25:55;;;;;;;7.10;1.90;;;13.30;93.40;;;;;;6215920;23;20016;-61
2023/01/31 09:28:22;;;;;;;9.63;2.20;;;13.60;93.50;;;;;;6189577;23;20091;-63
2023/01/31 09:30:48;;;;;;;8.52;2.13;;;13.50;93.50;;;;;;6215565;23;20389;-61
2023/01/31 09:33:13;;;;;;;10.95;2.20;;;13.70;93.60;;;;;;6208508;23;20016;-75
2023/01/31 09:35:39;;;;;;;9.93;2.50;;;13.30;93.40;;;;;;6216219;23;20017;-71
2023/01/31 09:38:05;;;;;;;6.55;2.10;;;;;;;;;;6216270;23;20374;-72
2023/01/31 09:40:32;;;;;;;7.13;2.10;;;;;;;;;;6216061;23;20067;-63
2023/01/31 09:43:00;;;;;;;9.75;2.40;;;13.50;93.50;;;;;;6215977;23;20346;-73
2023/01/31 09:45:30;;;;;;;6.88;2.50;;;13.50;93.50;;;;;;6215328;23;20028;-61
2023/01/31 09:47:56;;;;;;;9.82;2.80;;;13.70;93.50;;;;;;6216013;23;20024;-62
2023/01/31 09:50:34;;;;;;;9.27;2.28;;;13.60;93.50;;;;;;6216174;23;20009;-61
2023/01/31 09:53:00;;;;;;;9.40;2.20;;;;;;;;;;6215749;23;20020;-70
2023/01/31 09:55:40;;;;;;;11.20;2.40;;;13.60;92.40;;;;;;6215831;23;20021;-74
2023/01/31 09:58:27;;;;;;;7.60;1.98;;;13.60;91.70;;;;;;6166579;23;20024;-74
2023/01/31 10:01:01;;;;;;;9.23;2.45;;;13.30;93.40;;;;;;6188970;23;20378;-72
2023/01/31 10:03:51;;;;;;;8.13;2.35;;;13.50;91.60;;;;;;6189083;23;20024;-75
2023/01/31 10:06:22;;;;;;;10.05;2.30;;;13.60;93.60;;;;;;6215031;23;20013;-68
2023/01/31 10:08:53;;;;;;;9.27;2.30;;;13.40;92.40;;;;;;6164396;23;20028;-61
2023/01/31 10:11:47;;;;;;;7.57;2.20;;;13.60;93.50;;;;;;6188322;23;20013;-62
2023/01/31 10:14:18;;;;;;;7.07;1.88;;;13.60;93.60;;;;;;6214780;23;20049;-74
2023/01/31 10:16:50;;;;;;;6.90;1.98;;;13.60;92.10;;;;;;6188278;23;20334;-66
2023/01/31 10:19:36;;;;;;;8.43;2.27;;;13.50;93.40;;;;;;6187906;23;20017;-61
2023/01/31 10:22:11;;;;;;;9.40;2.63;;;13.60;91.60;;;;;;6191474;23;20016;-61
2023/01/31 10:24:45;;;;;;;8.20;2.03;;;13.70;93.70;;;;;;6165119;23;20151;-63
2023/01/31 10:28:03;;;;;;;8.77;2.60;;;13.60;92.50;;;;;;6165308;23;20016;-73
2023/01/31 10:30:49;;;;;;;9.63;2.30;;;13.70;91.90;;;;;;6183643;23;20031;-63
2023/01/31 10:33:22;;;;;;;8.38;2.97;;;13.70;93.80;;;;;;6189589;23;20016;-61
2023/01/31 10:35:47;;;;;;;9.23;3.10;;;13.60;93.80;;;;;;6215953;23;20023;-61
2023/01/31 10:38:15;;;;;;;10.23;3.08;;;;;;;;;;6182136;23;20347;-62
2023/01/31 10:40:42;;;;;;;11.25;3.00;;;13.70;93.70;;;;;;6189860;23;20013;-70
2023/01/31 10:43:37;;;;;;;10.00;3.20;;;13.80;92.00;;;;;;6190477;23;20307;-62
2023/01/31 10:46:08;;;;;;;9.30;2.55;;;13.90;92.50;;;;;;6191089;23;20020;-73
2023/01/31 10:48:34;;;;;;;9.70;2.75;;;13.60;93.80;;;;;;6166821;23;20051;-71
2023/01/31 10:51:00;;;;;;;8.90;2.40;;;;;;;;;;6217388;23;20331;-63
2023/01/31 10:53:52;;;;;;;8.40;2.20;;;13.70;91.90;;;;;;6217845;23;20025;-71
2023/01/31 10:56:24;;;;;;;7.57;2.15;;;13.70;91.90;;;;;;6217299;23;20017;-72
2023/01/31 10:58:52;;;;;;;9.52;2.40;;;;;;;;;;6217708;23;20016;-71
2023/01/31 11:01:19;;;;;;;9.00;3.40;;;13.80;92.60;;;;;;6216416;23;20457;-68
2023/01/31 11:03:50;;;;;;;17.77;4.63;;;;;;;;;;6216762;23;20016;-71
2023/01/31 11:06:17;;;;;;;15.93;4.95;;;13.40;93.70;;;;;;6190806;23;20032;-75
2023/01/31 11:08:48;;;;;;;16.58;5.43;;;13.70;93.90;;;;;;6217241;23;20048;-74
2023/01/31 11:11:18;;;;;;;17.25;5.13;;;13.80;93.80;;;;;;6217516;23;20431;-75
2023/01/31 11:13:58;;;;;;;27.13;5.35;;;13.90;92.00;;;;;;6190514;23;20021;-75
2023/01/31 11:16:25;;;;;;;11.73;3.10;;;13.80;93.80;;;;;;6216628;23;20454;-62
2023/01/31 11:18:51;;;;;;;10.20;3.38;;;13.60;92.60;;;;;;6217152;23;20020;-74
2023/01/31 11:21:30;;;;;;;10.65;2.85;;;13.90;91.90;;;;;;6190907;23;20020;-61
2023/01/31 11:24:04;;;;;;;9.40;3.08;;;13.80;93.90;;;;;;6191979;23;20067;-61
2023/01/31 11:26:32;;;;;;;10.43;2.95;;;13.50;93.80;;;;;;6190294;23;20337;-61
2023/01/31 11:28:58;;;;;;;10.40;2.63;;;13.70;93.90;;;;;;6191010;23;20051;-61
2023/01/31 11:31:34;;;;;;;12.27;2.78;;;;;;;;;;6189410;23;20438;-71
2023/01/31 11:34:02;;;;;;;9.73;2.10;;;13.80;94.00;;;;;;6190376;23;20013;-71
2023/01/31 11:36:32;;;;;;;7.13;2.45;;;13.70;93.90;;;;;;6217225;23;20341;-72
2023/01/31 11:38:58;;;;;;;8.30;2.80;;;13.70;94.00;;;;;;6216870;23;20092;-74
2023/01/31 11:41:35;;;;;;;8.45;2.50;;;13.80;92.10;;;;;;6190214;23;20040;-65
2023/01/31 11:44:22;;;;;;;8.05;2.40;;;;;;;;;;6190637;23;20083;-71
2023/01/31 11:46:59;;;;;;;6.43;1.90;;;13.80;93.90;;;;;;6210339;23;20095;-72
2023/01/31 11:49:39;;;;;;;6.97;2.25;;;;;;;;;;6166259;23;20093;-69
2023/01/31 11:52:17;;;;;;;8.90;2.53;;;13.60;92.00;;;;;;6190325;23;20070;-73
2023/01/31 11:54:46;;;;;;;9.38;2.63;;;13.80;92.60;;;;;;6166205;23;20339;-73
2023/01/31 11:57:16;;;;;;;7.70;2.22;;;13.70;94.00;;;;;;6165234;23;20012;-73
2023/01/31 11:59:42;;;;;;;6.70;2.17;;;;;;;;;;6216814;23;20451;-73
2023/01/31 12:02:25;;;;;;;8.50;2.10;;;13.80;93.90;;;;;;6190097;23;20021;-62
2023/01/31 12:04:51;;;;;;;5.05;1.90;;;13.80;94.00;;;;;;6190298;23;20040;-61
2023/01/31 12:07:21;;;;;;;11.00;2.55;;;13.80;93.90;;;;;;6216914;23;20399;-61
2023/01/31 12:09:47;;;;;;;7.25;1.80;;;13.90;92.80;;;;;;6216750;23;20028;-61
2023/01/31 12:12:41;;;;;;;7.97;2.00;;;14.00;92.70;;;;;;6215953;23;20012;-61
2023/01/31 12:15:15;;;;;;;6.65;1.90;;;;;;;;;;6185884;23;20374;-71
2023/01/31 12:17:46;;;;;;;7.03;2.03;;;14.00;92.00;;;;;;6216908;23;20021;-64
2023/01/31 12:20:17;;;;;;;6.32;2.08;;;14.00;92.00;;;;;;6190196;23;20012;-62
2023/01/31 12:22:52;;;;;;;4.93;1.70;;;14.20;94.10;;;;;;6216301;23;20024;-61
2023/01/31 12:25:43;;;;;;;5.68;1.77;;;13.90;91.80;;;;;;6189933;23;20024;-75
2023/01/31 12:28:25;;;;;;;5.43;1.77;;;13.90;92.70;;;;;;6216728;23;20048;-63
2023/01/31 12:30:51;;;;;;;7.80;2.70;;;14.00;93.90;;;;;;6191369;23;20451;-62
2023/01/31 12:33:36;;;;;;;6.22;1.75;;;;;;;;;;6216348;23;20103;-66
2023/01/31 12:36:07;;;;;;;6.18;1.75;;;14.00;94.00;;;;;;6216332;23;20021;-62
2023/01/31 12:38:34;;;;;;;6.88;2.05;;;;;;;;;;6216269;23;20316;-70
2023/01/31 12:41:22;;;;;;;5.10;1.92;;;14.00;92.10;;;;;;6216372;23;20020;-62
2023/01/31 12:43:58;;;;;;;7.50;2.28;;;13.90;93.90;;;;;;6189193;23;20505;-70
2023/01/31 12:46:24;;;;;;;6.72;2.00;;;;;;;;;;6184468;22;20463;-64
2023/01/31 12:48:59;;;;;;;4.88;2.00;;;14.20;93.90;;;;;;6215725;23;20058;-63
2023/01/31 12:51:37;;;;;;;6.60;2.08;;;;;;;;;;6215722;23;20021;-63
2023/01/31 12:54:21;;;;;;;9.65;2.28;;;14.00;94.10;;;;;;6189271;23;20017;-66
2023/01/31 12:57:09;;;;;;;6.20;1.90;;;14.00;91.90;;;;;;6216012;23;20451;-62
2023/01/31 12:59:50;;;;;;;9.32;1.98;;;;;;;;;;6216664;23;20335;-62
2023/01/31 13:02:41;;;;;;;8.35;2.33;;;13.80;92.80;;;;;;6189480;23;20035;-62
2023/01/31 13:05:42;;;;;;;7.93;2.33;;;14.20;92.90;;;;;;6191931;23;20020;-61
2023/01/31 13:08:28;;;;;;;7.28;2.25;;;;;;;;;;6037345;23;20026;-65
2023/01/31 13:10:58;;;;;;;7.00;2.05;;;;;;;;;;6039857;23;20454;-62
2023/01/31 13:13:29;;;;;;;9.27;1.92;;;14.10;91.90;;;;;;6064914;23;20019;-63
2023/01/31 13:16:18;;;;;;;8.90;1.98;;;14.20;92.20;;;;;;5989915;23;20034;-65
2023/01/31 13:18:45;;;;;;;8.50;2.83;;;14.20;92.60;;;;;;6035383;23;20019;-65
2023/01/31 13:21:13;;;;;;;7.95;2.15;;;;;;;;;;6035991;23;20493;-66
2023/01/31 13:23:41;;;;;;;7.72;2.03;;;14.10;93.90;;;;;;6036236;23;20030;-66
2023/01/31 13:26:10;;;;;;;7.20;1.90;;;14.10;92.50;;;;;;5989532;23;20015;-78
2023/01/31 13:28:45;;;;;;;8.32;2.20;;;14.20;92.10;;;;;;5990143;23;20066;-77